createdAt,value
2019-05-07T00:00:45.297Z,8.02
2019-05-07T00:01:45.277Z,8.04
2019-05-07T00:02:45.317Z,8.02
2019-05-07T00:03:45.251Z,8.02
2019-05-07T00:04:45.241Z,8.05
2019-05-07T00:05:45.230Z,8.05
2019-05-07T00:06:45.217Z,8.04
2019-05-07T00:07:45.270Z,8.09
2019-05-07T00:08:45.213Z,7.98
2019-05-07T00:09:45.189Z,8.04
2019-05-07T00:10:45.177Z,8.05
2019-05-07T00:11:45.166Z,8.09
2019-05-07T00:12:45.159Z,8.06
2019-05-07T00:13:45.186Z,8.09
2019-05-07T00:14:58.192Z,8.02
2019-05-07T00:15:46.119Z,8.09
2019-05-07T00:16:45.107Z,8.05
2019-05-07T00:17:45.139Z,8.09
2019-05-07T00:18:45.089Z,8.10
2019-05-07T00:19:45.094Z,7.96
2019-05-07T00:20:45.239Z,7.96
2019-05-07T00:21:45.054Z,8.02
2019-05-07T00:22:45.083Z,7.88
2019-05-07T00:23:45.033Z,7.94
2019-05-07T00:24:45.064Z,8.02
2019-05-07T00:25:45.055Z,8.02
2019-05-07T00:26:44.995Z,8.20
2019-05-07T00:27:44.994Z,8.10
2019-05-07T00:28:44.973Z,8.26
2019-05-07T00:29:45.017Z,8.24
2019-05-07T00:30:44.954Z,8.32
2019-05-07T00:31:44.941Z,8.35
2019-05-07T00:32:44.930Z,8.44
2019-05-07T00:33:44.918Z,8.47
2019-05-07T00:34:44.911Z,8.50
2019-05-07T00:35:44.935Z,8.37
2019-05-07T00:36:44.893Z,8.31
2019-05-07T00:37:44.874Z,8.34
2019-05-07T00:38:44.864Z,8.35
2019-05-07T00:39:44.851Z,8.35
2019-05-07T00:40:44.840Z,8.35
2019-05-07T00:41:44.914Z,8.32
2019-05-07T00:42:44.822Z,8.29
2019-05-07T00:43:44.854Z,8.34
2019-05-07T00:44:44.836Z,8.29
2019-05-07T00:45:44.831Z,8.34
2019-05-07T00:46:44.821Z,8.29
2019-05-07T00:47:44.779Z,8.24
2019-05-07T00:48:44.757Z,8.16
2019-05-07T00:49:44.740Z,8.17
2019-05-07T00:50:44.772Z,8.12
2019-05-07T00:51:44.721Z,8.04
2019-05-07T00:52:44.709Z,8.14
2019-05-07T00:53:44.738Z,8.12
2019-05-07T00:54:44.690Z,8.02
2019-05-07T00:55:44.674Z,7.99
2019-05-07T00:56:44.669Z,8.01
2019-05-07T00:57:44.656Z,7.88
2019-05-07T00:58:44.685Z,7.96
2019-05-07T00:59:44.635Z,7.91
2019-05-07T01:00:44.618Z,7.84
2019-05-07T01:01:44.614Z,7.78
2019-05-07T01:02:44.599Z,7.83
2019-05-07T01:03:44.586Z,7.78
2019-05-07T01:04:44.619Z,7.74
2019-05-07T01:05:44.565Z,7.74
2019-05-07T01:06:44.551Z,7.74
2019-05-07T01:07:44.539Z,7.77
2019-05-07T01:08:44.572Z,7.74
2019-05-07T01:09:44.521Z,7.76
2019-05-07T01:10:44.509Z,7.64
2019-05-07T01:11:44.543Z,7.69
2019-05-07T01:12:44.488Z,7.74
2019-05-07T01:13:44.475Z,7.64
2019-05-07T01:14:44.467Z,7.71
2019-05-07T01:15:44.499Z,7.73
2019-05-07T01:16:44.446Z,7.74
2019-05-07T01:17:44.480Z,7.74
2019-05-07T01:18:44.421Z,7.80
2019-05-07T01:19:44.409Z,7.78
2019-05-07T01:20:44.398Z,7.77
2019-05-07T01:21:44.434Z,7.78
2019-05-07T01:22:44.375Z,7.76
2019-05-07T01:23:44.407Z,7.77
2019-05-07T01:24:44.399Z,7.84
2019-05-07T01:25:44.344Z,7.69
2019-05-07T01:26:44.335Z,7.64
2019-05-07T01:27:44.323Z,7.52
2019-05-07T01:28:44.308Z,7.47
2019-05-07T01:29:44.300Z,7.46
2019-05-07T01:30:44.348Z,7.46
2019-05-07T01:31:44.277Z,7.33
2019-05-07T01:32:44.268Z,7.28
2019-05-07T01:33:44.317Z,7.24
2019-05-07T01:34:44.266Z,7.19
2019-05-07T01:35:44.238Z,7.11
2019-05-07T01:36:44.220Z,7.15
2019-05-07T01:37:44.211Z,7.18
2019-05-07T01:38:44.213Z,7.11
2019-05-07T01:39:44.238Z,7.18
2019-05-07T01:40:44.180Z,7.22
2019-05-07T01:41:44.165Z,7.25
2019-05-07T01:42:44.156Z,7.22
2019-05-07T01:43:44.145Z,7.21
2019-05-07T01:44:44.133Z,7.29
2019-05-07T01:45:48.999Z,7.28
2019-05-07T01:46:45.116Z,7.26
2019-05-07T01:47:44.099Z,7.26
2019-05-07T01:48:44.108Z,7.19
2019-05-07T01:49:44.121Z,7.26
2019-05-07T01:50:44.096Z,7.22
2019-05-07T01:51:44.062Z,7.11
2019-05-07T01:52:44.042Z,7.10
2019-05-07T01:53:44.061Z,7.13
2019-05-07T01:54:47.167Z,7.06
2019-05-07T01:55:44.063Z,7.03
2019-05-07T01:56:44.002Z,7.03
2019-05-07T01:57:43.997Z,7.06
2019-05-07T01:58:44.026Z,7.04
2019-05-07T01:59:44.014Z,7.08
2019-05-07T02:00:43.996Z,7.07
2019-05-07T02:01:43.943Z,7.00
2019-05-07T02:02:43.937Z,6.96
2019-05-07T02:03:43.939Z,7.07
2019-05-07T02:04:43.952Z,6.93
2019-05-07T02:05:43.900Z,6.99
2019-05-07T02:06:43.887Z,6.93
2019-05-07T02:07:43.879Z,7.06
2019-05-07T02:08:43.870Z,6.96
2019-05-07T02:09:43.902Z,7.01
2019-05-07T02:10:43.845Z,7.03
2019-05-07T02:11:43.834Z,6.99
2019-05-07T02:12:43.822Z,7.01
2019-05-07T02:13:43.811Z,7.00
2019-05-07T02:14:43.821Z,6.96
2019-05-07T02:15:57.245Z,7.00
2019-05-07T02:16:44.779Z,7.06
2019-05-07T02:17:43.765Z,7.04
2019-05-07T02:18:43.796Z,7.07
2019-05-07T02:19:43.745Z,7.21
2019-05-07T02:20:43.737Z,7.29
2019-05-07T02:21:43.721Z,7.29
2019-05-07T02:22:43.710Z,7.24
2019-05-07T02:23:43.750Z,7.37
2019-05-07T02:24:43.727Z,7.31
2019-05-07T02:25:43.681Z,7.29
2019-05-07T02:26:43.688Z,7.28
2019-05-07T02:27:43.654Z,7.31
2019-05-07T02:28:43.695Z,7.31
2019-05-07T02:29:43.634Z,7.37
2019-05-07T02:30:44.676Z,7.34
2019-05-07T02:31:44.353Z,7.29
2019-05-07T02:32:43.673Z,7.28
2019-05-07T02:33:43.880Z,7.33
2019-05-07T02:34:44.311Z,7.37
2019-05-07T02:35:44.095Z,7.31
2019-05-07T02:36:43.732Z,7.31
2019-05-07T02:37:51.018Z,7.26
2019-05-07T02:38:44.579Z,7.42
2019-05-07T02:39:44.267Z,7.50
2019-05-07T02:40:43.595Z,7.58
2019-05-07T02:41:44.344Z,7.58
2019-05-07T02:42:44.304Z,7.64
2019-05-07T02:43:43.531Z,7.68
2019-05-07T02:44:43.879Z,7.68
2019-05-07T02:45:44.073Z,7.54
2019-05-07T02:46:43.629Z,7.60
2019-05-07T02:47:43.899Z,7.66
2019-05-07T02:48:43.469Z,7.68
2019-05-07T02:49:44.043Z,7.66
2019-05-07T02:50:43.794Z,7.61
2019-05-07T02:51:43.881Z,7.60
2019-05-07T02:52:43.987Z,7.61
2019-05-07T02:53:43.410Z,7.52
2019-05-07T02:54:43.747Z,7.54
2019-05-07T02:55:43.695Z,7.58
2019-05-07T02:56:43.575Z,7.54
2019-05-07T02:57:43.601Z,7.58
2019-05-07T02:58:43.588Z,7.58
2019-05-07T02:59:44.041Z,7.55
2019-05-07T03:00:43.641Z,7.54
2019-05-07T03:01:43.605Z,7.52
2019-05-07T03:02:43.846Z,7.46
2019-05-07T03:03:44.881Z,7.42
2019-05-07T03:04:43.691Z,7.52
2019-05-07T03:05:43.536Z,7.46
2019-05-07T03:06:44.183Z,7.50
2019-05-07T03:07:43.220Z,7.40
2019-05-07T03:08:43.990Z,7.43
2019-05-07T03:09:43.428Z,7.46
2019-05-07T03:10:43.738Z,7.39
2019-05-07T03:11:43.557Z,7.31
2019-05-07T03:12:43.312Z,7.25
2019-05-07T03:13:43.479Z,7.42
2019-05-07T03:14:43.852Z,7.34
2019-05-07T03:15:43.683Z,7.33
2019-05-07T03:16:48.505Z,7.42
2019-05-07T03:17:44.107Z,7.44
2019-05-07T03:18:44.055Z,7.46
2019-05-07T03:19:43.273Z,7.42
2019-05-07T03:20:43.167Z,7.43
2019-05-07T03:21:44.024Z,7.57
2019-05-07T03:22:43.145Z,7.60
2019-05-07T03:23:43.090Z,7.55
2019-05-07T03:24:43.593Z,7.58
2019-05-07T03:25:43.266Z,7.68
2019-05-07T03:26:43.640Z,7.55
2019-05-07T03:27:43.261Z,7.60
2019-05-07T03:28:42.984Z,7.64
2019-05-07T03:29:44.173Z,7.52
2019-05-07T03:30:45.645Z,7.71
2019-05-07T03:31:46.557Z,7.57
2019-05-07T03:32:47.480Z,7.66
2019-05-07T03:33:47.015Z,7.69
2019-05-07T03:34:46.696Z,7.71
2019-05-07T03:35:46.751Z,7.69
2019-05-07T03:36:47.579Z,7.57
2019-05-07T03:37:44.387Z,7.71
2019-05-07T03:38:43.908Z,7.61
2019-05-07T03:39:43.400Z,7.64
2019-05-07T03:40:44.796Z,7.60
2019-05-07T03:41:43.478Z,7.55
2019-05-07T03:42:43.959Z,7.68
2019-05-07T03:43:43.582Z,7.52
2019-05-07T03:44:44.528Z,7.55
2019-05-07T03:45:43.474Z,7.55
2019-05-07T03:46:54.545Z,7.54
2019-05-07T03:47:44.111Z,7.58
2019-05-07T03:48:44.117Z,7.55
2019-05-07T03:49:43.073Z,7.62
2019-05-07T03:50:43.373Z,7.60
2019-05-07T03:51:44.181Z,7.50
2019-05-07T03:52:43.048Z,7.58
2019-05-07T03:53:43.559Z,7.58
2019-05-07T03:54:43.182Z,7.66
2019-05-07T03:55:44.570Z,7.64
2019-05-07T03:56:43.568Z,7.62
2019-05-07T03:57:43.571Z,7.66
2019-05-07T03:58:43.483Z,7.68
2019-05-07T03:59:43.393Z,7.73
2019-05-07T04:00:44.267Z,7.74
2019-05-07T04:01:43.151Z,7.73
2019-05-07T04:02:43.671Z,7.71
2019-05-07T04:03:44.595Z,7.74
2019-05-07T04:04:43.259Z,7.74
2019-05-07T04:05:43.561Z,7.73
2019-05-07T04:06:43.426Z,7.71
2019-05-07T04:07:43.228Z,7.77
2019-05-07T04:08:43.418Z,7.73
2019-05-07T04:09:43.684Z,7.73
2019-05-07T04:10:44.206Z,7.74
2019-05-07T04:11:43.301Z,7.68
2019-05-07T04:12:44.126Z,7.73
2019-05-07T04:13:44.168Z,7.83
2019-05-07T04:14:43.248Z,7.77
2019-05-07T04:15:43.899Z,7.80
2019-05-07T04:16:44.074Z,7.83
2019-05-07T04:17:42.977Z,7.76
2019-05-07T04:18:43.837Z,7.71
2019-05-07T04:19:44.001Z,7.76
2019-05-07T04:20:43.563Z,7.77
2019-05-07T04:21:43.443Z,7.78
2019-05-07T04:22:43.343Z,7.78
2019-05-07T04:23:43.648Z,7.80
2019-05-07T04:24:43.015Z,7.74
2019-05-07T04:25:43.530Z,7.88
2019-05-07T04:26:43.049Z,7.87
2019-05-07T04:27:46.697Z,7.78
2019-05-07T04:28:43.668Z,7.80
2019-05-07T04:29:43.011Z,7.77
2019-05-07T04:30:43.825Z,7.77
2019-05-07T04:31:43.604Z,7.88
2019-05-07T04:32:43.407Z,7.84
2019-05-07T04:33:43.963Z,7.91
2019-05-07T04:34:44.446Z,7.88
2019-05-07T04:35:43.502Z,7.91
2019-05-07T04:36:43.552Z,7.91
2019-05-07T04:37:42.837Z,7.86
2019-05-07T04:38:44.014Z,7.95
2019-05-07T04:39:42.876Z,7.91
2019-05-07T04:40:43.387Z,7.96
2019-05-07T04:41:43.398Z,7.96
2019-05-07T04:42:42.833Z,7.94
2019-05-07T04:43:43.524Z,7.96
2019-05-07T04:44:43.693Z,7.96
2019-05-07T04:45:43.218Z,8.10
2019-05-07T04:46:47.527Z,8.02
2019-05-07T04:47:47.530Z,7.95
2019-05-07T04:48:43.940Z,7.92
2019-05-07T04:49:43.691Z,7.91
2019-05-07T04:50:46.679Z,7.86
2019-05-07T04:51:43.550Z,7.94
2019-05-07T04:52:43.735Z,7.94
2019-05-07T04:53:42.862Z,7.96
2019-05-07T04:54:43.670Z,8.12
2019-05-07T04:55:43.065Z,8.14
2019-05-07T04:56:43.595Z,8.10
2019-05-07T04:57:43.818Z,8.13
2019-05-07T04:58:43.293Z,8.14
2019-05-07T04:59:42.938Z,8.13
2019-05-07T05:00:43.123Z,8.16
2019-05-07T05:01:43.588Z,8.10
2019-05-07T05:02:43.501Z,8.12
2019-05-07T05:03:43.680Z,7.99
2019-05-07T05:04:43.960Z,8.14
2019-05-07T05:05:43.534Z,8.16
2019-05-07T05:06:42.483Z,8.19
2019-05-07T05:07:43.123Z,8.24
2019-05-07T05:08:43.560Z,8.23
2019-05-07T05:09:42.602Z,8.28
2019-05-07T05:10:43.257Z,8.23
2019-05-07T05:11:43.859Z,8.14
2019-05-07T05:12:42.860Z,8.24
2019-05-07T05:13:44.468Z,8.23
2019-05-07T05:14:43.522Z,8.16
2019-05-07T05:15:43.112Z,8.29
2019-05-07T05:16:42.519Z,8.24
2019-05-07T05:17:50.470Z,8.24
2019-05-07T05:18:42.787Z,8.26
2019-05-07T05:19:43.833Z,8.14
2019-05-07T05:20:42.230Z,8.10
2019-05-07T05:21:42.069Z,8.04
2019-05-07T05:22:42.613Z,8.06
2019-05-07T05:23:42.043Z,8.17
2019-05-07T05:24:42.457Z,8.14
2019-05-07T05:25:43.131Z,8.14
2019-05-07T05:26:41.981Z,8.26
2019-05-07T05:27:42.954Z,8.23
2019-05-07T05:28:42.117Z,8.10
2019-05-07T05:29:42.961Z,8.31
2019-05-07T05:30:42.452Z,8.34
2019-05-07T05:31:42.266Z,8.28
2019-05-07T05:32:42.461Z,8.32
2019-05-07T05:33:42.099Z,8.32
2019-05-07T05:34:42.580Z,8.32
2019-05-07T05:35:43.113Z,8.35
2019-05-07T05:36:42.552Z,8.42
2019-05-07T05:37:42.952Z,8.39
2019-05-07T05:38:42.311Z,8.41
2019-05-07T05:39:42.630Z,8.49
2019-05-07T05:40:42.749Z,8.63
2019-05-07T05:41:42.205Z,8.67
2019-05-07T05:42:42.848Z,8.74
2019-05-07T05:43:42.533Z,8.83
2019-05-07T05:44:41.829Z,8.86
2019-05-07T05:45:42.633Z,8.93
2019-05-07T05:46:42.865Z,8.92
2019-05-07T05:47:44.833Z,8.85
2019-05-07T05:48:42.498Z,9.09
2019-05-07T05:49:42.900Z,9.11
2019-05-07T05:50:42.258Z,9.15
2019-05-07T05:51:43.011Z,9.08
2019-05-07T05:52:42.502Z,9.04
2019-05-07T05:53:43.317Z,9.04
2019-05-07T05:54:42.584Z,9.12
2019-05-07T05:55:42.816Z,9.11
2019-05-07T05:56:42.696Z,9.06
2019-05-07T05:57:42.452Z,9.08
2019-05-07T05:58:43.090Z,9.12
2019-05-07T05:59:49.115Z,9.06
2019-05-07T06:00:42.391Z,9.08
2019-05-07T06:01:42.615Z,9.18
2019-05-07T06:02:44.017Z,9.01
2019-05-07T06:03:43.005Z,9.18
2019-05-07T06:04:42.053Z,9.29
2019-05-07T06:05:42.054Z,9.19
2019-05-07T06:06:42.321Z,9.22
2019-05-07T06:07:42.758Z,9.30
2019-05-07T06:08:43.454Z,9.18
2019-05-07T06:09:42.248Z,9.04
2019-05-07T06:10:42.467Z,9.01
2019-05-07T06:11:42.952Z,8.96
2019-05-07T06:12:42.862Z,9.09
2019-05-07T06:13:41.994Z,9.16
2019-05-07T06:14:42.473Z,9.19
2019-05-07T06:15:41.991Z,9.23
2019-05-07T06:16:42.022Z,9.24
2019-05-07T06:17:42.492Z,9.33
2019-05-07T06:18:41.880Z,9.48
2019-05-07T06:19:42.416Z,9.48
2019-05-07T06:20:42.831Z,9.44
2019-05-07T06:21:41.867Z,9.47
2019-05-07T06:22:42.463Z,9.50
2019-05-07T06:23:42.034Z,9.55
2019-05-07T06:24:42.647Z,9.60
2019-05-07T06:25:42.798Z,9.66
2019-05-07T06:26:42.563Z,9.77
2019-05-07T06:27:41.835Z,9.78
2019-05-07T06:28:42.526Z,9.70
2019-05-07T06:29:42.576Z,9.75
2019-05-07T06:30:41.834Z,9.75
2019-05-07T06:31:42.172Z,9.78
2019-05-07T06:32:43.020Z,9.81
2019-05-07T06:33:42.967Z,9.84
2019-05-07T06:34:44.227Z,9.83
2019-05-07T06:35:42.915Z,9.72
2019-05-07T06:36:42.386Z,9.77
2019-05-07T06:37:42.912Z,9.72
2019-05-07T06:38:42.686Z,9.70
2019-05-07T06:39:42.140Z,9.70
2019-05-07T06:40:42.339Z,9.78
2019-05-07T06:41:41.837Z,9.73
2019-05-07T06:42:42.778Z,9.87
2019-05-07T06:43:42.170Z,9.90
2019-05-07T06:44:42.727Z,9.98
2019-05-07T06:45:42.241Z,9.93
2019-05-07T06:46:41.958Z,9.88
2019-05-07T06:47:42.505Z,9.87
2019-05-07T06:48:43.715Z,9.85
2019-05-07T06:49:42.833Z,9.83
2019-05-07T06:50:43.090Z,9.78
2019-05-07T06:51:41.989Z,9.85
2019-05-07T06:52:42.571Z,9.88
2019-05-07T06:53:42.221Z,9.84
2019-05-07T06:54:42.750Z,9.90
2019-05-07T06:55:42.796Z,9.96
2019-05-07T06:56:42.150Z,10.09
2019-05-07T06:57:42.513Z,10.21
2019-05-07T06:58:41.907Z,10.24
2019-05-07T06:59:42.325Z,10.23
2019-05-07T07:00:42.228Z,10.24
2019-05-07T07:01:42.341Z,10.27
2019-05-07T07:02:41.936Z,10.26
2019-05-07T07:03:41.985Z,10.24
2019-05-07T07:04:42.329Z,10.27
2019-05-07T07:05:42.449Z,10.35
2019-05-07T07:06:42.660Z,10.46
2019-05-07T07:07:42.132Z,10.55
2019-05-07T07:08:41.979Z,10.62
2019-05-07T07:09:42.438Z,10.70
2019-05-07T07:10:42.568Z,10.76
2019-05-07T07:11:42.388Z,10.73
2019-05-07T07:12:42.479Z,10.48
2019-05-07T07:13:42.621Z,10.55
2019-05-07T07:14:42.378Z,10.70
2019-05-07T07:15:42.614Z,10.75
2019-05-07T07:16:42.049Z,10.76
2019-05-07T07:17:41.919Z,10.80
2019-05-07T07:18:49.534Z,10.93
2019-05-07T07:19:42.827Z,11.00
2019-05-07T07:20:40.420Z,10.94
2019-05-07T07:21:42.166Z,10.97
2019-05-07T07:22:42.468Z,11.04
2019-05-07T07:23:42.777Z,11.03
2019-05-07T07:24:42.388Z,11.13
2019-05-07T07:25:40.357Z,11.23
2019-05-07T07:26:42.244Z,11.34
2019-05-07T07:27:42.794Z,11.31
2019-05-07T07:28:40.335Z,11.30
2019-05-07T07:29:41.710Z,11.41
2019-05-07T07:30:42.043Z,11.45
2019-05-07T07:31:42.444Z,11.62
2019-05-07T07:32:42.506Z,11.56
2019-05-07T07:33:40.296Z,11.28
2019-05-07T07:34:42.557Z,11.12
2019-05-07T07:35:42.721Z,11.22
2019-05-07T07:36:42.284Z,11.08
2019-05-07T07:37:42.836Z,11.25
2019-05-07T07:38:42.083Z,11.54
2019-05-07T07:39:40.205Z,11.51
2019-05-07T07:40:42.223Z,11.70
2019-05-07T07:41:42.133Z,11.70
2019-05-07T07:42:42.537Z,11.80
2019-05-07T07:43:41.950Z,11.77
2019-05-07T07:44:42.414Z,11.91
2019-05-07T07:45:42.064Z,12.04
2019-05-07T07:46:42.297Z,12.04
2019-05-07T07:47:42.199Z,12.15
2019-05-07T07:48:40.138Z,12.23
2019-05-07T07:49:42.087Z,12.28
2019-05-07T07:50:42.132Z,12.32
2019-05-07T07:51:42.712Z,12.43
2019-05-07T07:52:42.042Z,12.46
2019-05-07T07:53:42.364Z,12.46
2019-05-07T07:54:40.120Z,12.51
2019-05-07T07:55:40.067Z,12.46
2019-05-07T07:56:50.178Z,12.58
2019-05-07T07:57:42.727Z,12.76
2019-05-07T07:58:41.931Z,12.77
2019-05-07T07:59:41.995Z,12.77
2019-05-07T08:00:42.759Z,12.61
2019-05-07T08:01:41.983Z,12.62
2019-05-07T08:02:42.291Z,12.23
2019-05-07T08:03:41.673Z,11.89
2019-05-07T08:04:39.919Z,11.62
2019-05-07T08:05:39.915Z,11.59
2019-05-07T08:06:41.905Z,11.51
2019-05-07T08:07:39.894Z,11.56
2019-05-07T08:08:39.916Z,11.70
2019-05-07T08:09:39.884Z,11.77
2019-05-07T08:10:39.901Z,11.88
2019-05-07T08:11:39.904Z,12.07
2019-05-07T08:12:42.054Z,11.95
2019-05-07T08:13:39.906Z,12.04
2019-05-07T08:14:39.916Z,12.05
2019-05-07T08:15:39.945Z,12.07
2019-05-07T08:16:40.099Z,12.22
2019-05-07T08:17:41.923Z,12.38
2019-05-07T08:18:39.890Z,12.44
2019-05-07T08:19:39.796Z,12.40
2019-05-07T08:20:39.852Z,12.17
2019-05-07T08:21:41.919Z,11.93
2019-05-07T08:22:39.723Z,11.77
2019-05-07T08:23:39.699Z,11.76
2019-05-07T08:24:42.391Z,11.99
2019-05-07T08:25:39.751Z,12.23
2019-05-07T08:26:39.745Z,12.47
2019-05-07T08:27:41.807Z,12.71
2019-05-07T08:28:41.797Z,12.80
2019-05-07T08:29:39.727Z,12.98
2019-05-07T08:30:39.624Z,12.88
2019-05-07T08:31:39.816Z,12.98
2019-05-07T08:32:39.844Z,13.23
2019-05-07T08:33:39.640Z,12.95
2019-05-07T08:34:39.605Z,12.71
2019-05-07T08:35:41.794Z,12.61
2019-05-07T08:36:39.551Z,12.71
2019-05-07T08:37:39.584Z,12.55
2019-05-07T08:38:39.587Z,12.59
2019-05-07T08:39:39.531Z,12.66
2019-05-07T08:40:41.763Z,12.73
2019-05-07T08:41:39.514Z,12.77
2019-05-07T08:42:41.798Z,12.96
2019-05-07T08:43:39.522Z,13.17
2019-05-07T08:44:39.485Z,13.20
2019-05-07T08:45:39.473Z,13.16
2019-05-07T08:46:39.445Z,13.21
2019-05-07T08:47:39.482Z,13.29
2019-05-07T08:48:39.428Z,13.42
2019-05-07T08:49:40.337Z,13.55
2019-05-07T08:50:39.393Z,13.65
2019-05-07T08:51:39.388Z,13.71
2019-05-07T08:52:39.420Z,13.67
2019-05-07T08:53:39.415Z,13.54
2019-05-07T08:54:39.419Z,13.57
2019-05-07T08:55:39.366Z,13.67
2019-05-07T08:56:39.339Z,13.82
2019-05-07T08:57:39.343Z,13.96
2019-05-07T08:58:39.312Z,14.00
2019-05-07T08:59:39.338Z,13.96
2019-05-07T09:00:39.341Z,13.96
2019-05-07T09:01:39.292Z,14.01
2019-05-07T09:02:39.276Z,13.90
2019-05-07T09:03:39.377Z,13.60
2019-05-07T09:04:39.315Z,13.53
2019-05-07T09:05:39.239Z,13.55
2019-05-07T09:06:39.232Z,13.60
2019-05-07T09:07:39.214Z,13.65
2019-05-07T09:08:39.204Z,13.96
2019-05-07T09:09:39.203Z,13.91
2019-05-07T09:10:39.258Z,13.85
2019-05-07T09:11:39.160Z,13.98
2019-05-07T09:12:39.153Z,14.05
2019-05-07T09:13:39.238Z,14.11
2019-05-07T09:14:39.139Z,14.13
2019-05-07T09:15:39.142Z,14.21
2019-05-07T09:16:39.284Z,14.30
2019-05-07T09:17:39.107Z,14.30
2019-05-07T09:18:39.208Z,14.36
2019-05-07T09:19:50.028Z,14.34
2019-05-07T09:20:42.380Z,14.48
2019-05-07T09:21:39.092Z,14.37
2019-05-07T09:22:39.060Z,14.44
2019-05-07T09:23:39.042Z,14.26
2019-05-07T09:24:39.021Z,14.36
2019-05-07T09:25:39.061Z,14.48
2019-05-07T09:26:41.699Z,14.52
2019-05-07T09:27:39.013Z,14.52
2019-05-07T09:28:39.199Z,14.56
2019-05-07T09:29:39.014Z,14.48
2019-05-07T09:30:38.955Z,14.28
2019-05-07T09:31:39.210Z,14.31
2019-05-07T09:32:38.963Z,14.48
2019-05-07T09:33:38.926Z,14.64
2019-05-07T09:34:38.923Z,14.89
2019-05-07T09:35:39.848Z,15.08
2019-05-07T09:36:38.909Z,15.10
2019-05-07T09:37:38.910Z,15.38
2019-05-07T09:38:38.915Z,15.54
2019-05-07T09:39:38.854Z,15.51
2019-05-07T09:40:38.861Z,15.40
2019-05-07T09:41:38.832Z,15.27
2019-05-07T09:42:38.887Z,15.10
2019-05-07T09:43:38.888Z,15.08
2019-05-07T09:44:38.793Z,15.15
2019-05-07T09:45:38.793Z,15.08
2019-05-07T09:46:38.791Z,15.25
2019-05-07T09:47:38.776Z,15.26
2019-05-07T09:48:38.792Z,15.36
2019-05-07T09:49:38.912Z,15.20
2019-05-07T09:50:39.400Z,15.44
2019-05-07T09:51:38.770Z,15.66
2019-05-07T09:52:38.717Z,15.81
2019-05-07T09:53:38.841Z,15.81
2019-05-07T09:54:38.680Z,15.77
2019-05-07T09:55:38.691Z,15.60
2019-05-07T09:56:38.689Z,15.77
2019-05-07T09:57:38.656Z,15.76
2019-05-07T09:58:39.304Z,15.78
2019-05-07T09:59:38.795Z,15.78
2019-05-07T10:00:38.662Z,15.90
2019-05-07T10:01:38.603Z,16.13
2019-05-07T10:02:38.598Z,15.91
2019-05-07T10:03:38.618Z,15.80
2019-05-07T10:04:38.631Z,15.88
2019-05-07T10:05:38.552Z,15.88
2019-05-07T10:06:38.578Z,15.76
2019-05-07T10:07:38.601Z,15.56
2019-05-07T10:08:38.930Z,15.29
2019-05-07T10:09:38.621Z,15.33
2019-05-07T10:10:38.517Z,15.41
2019-05-07T10:11:38.499Z,15.51
2019-05-07T10:12:38.503Z,15.08
2019-05-07T10:13:38.869Z,15.07
2019-05-07T10:14:38.460Z,15.03
2019-05-07T10:15:38.620Z,15.01
2019-05-07T10:16:38.438Z,15.27
2019-05-07T10:17:38.462Z,15.38
2019-05-07T10:18:38.480Z,15.68
2019-05-07T10:19:38.519Z,15.88
2019-05-07T10:20:38.390Z,16.09
2019-05-07T10:21:38.483Z,16.10
2019-05-07T10:22:38.404Z,16.00
2019-05-07T10:23:38.448Z,15.44
2019-05-07T10:24:38.356Z,15.10
2019-05-07T10:25:38.377Z,15.29
2019-05-07T10:26:40.073Z,15.40
2019-05-07T10:27:38.318Z,15.48
2019-05-07T10:28:38.350Z,15.45
2019-05-07T10:29:38.347Z,15.44
2019-05-07T10:30:38.424Z,15.32
2019-05-07T10:31:38.376Z,15.26
2019-05-07T10:32:38.304Z,15.26
2019-05-07T10:33:38.466Z,14.93
2019-05-07T10:34:38.386Z,14.53
2019-05-07T10:35:38.247Z,14.18
2019-05-07T10:36:38.226Z,14.16
2019-05-07T10:37:38.355Z,14.28
2019-05-07T10:38:38.269Z,14.27
2019-05-07T10:39:38.254Z,14.26
2019-05-07T10:40:38.260Z,14.26
2019-05-07T10:41:38.165Z,14.30
2019-05-07T10:42:38.147Z,14.40
2019-05-07T10:43:38.264Z,14.40
2019-05-07T10:44:38.190Z,14.40
2019-05-07T10:45:38.638Z,14.44
2019-05-07T10:46:38.106Z,14.41
2019-05-07T10:47:38.176Z,14.33
2019-05-07T10:48:38.077Z,14.31
2019-05-07T10:49:38.105Z,14.13
2019-05-07T10:50:39.289Z,14.05
2019-05-07T10:51:38.113Z,13.91
2019-05-07T10:52:38.031Z,13.90
2019-05-07T10:53:38.020Z,14.00
2019-05-07T10:54:38.007Z,13.91
2019-05-07T10:55:38.019Z,13.71
2019-05-07T10:56:37.983Z,13.51
2019-05-07T10:57:38.020Z,13.35
2019-05-07T10:58:37.967Z,13.30
2019-05-07T10:59:37.981Z,13.24
2019-05-07T11:00:37.967Z,13.26
2019-05-07T11:01:37.938Z,13.32
2019-05-07T11:02:39.311Z,13.26
2019-05-07T11:03:37.953Z,13.38
2019-05-07T11:04:42.084Z,13.42
2019-05-07T11:05:38.940Z,13.60
2019-05-07T11:06:37.891Z,13.58
2019-05-07T11:07:37.923Z,13.53
2019-05-07T11:08:37.851Z,13.54
2019-05-07T11:09:37.875Z,13.63
2019-05-07T11:10:37.860Z,13.71
2019-05-07T11:11:37.861Z,13.78
2019-05-07T11:12:37.814Z,13.90
2019-05-07T11:13:37.807Z,13.98
2019-05-07T11:14:37.790Z,14.12
2019-05-07T11:15:37.840Z,14.19
2019-05-07T11:16:37.769Z,14.36
2019-05-07T11:17:37.793Z,14.49
2019-05-07T11:18:37.752Z,14.59
2019-05-07T11:19:37.782Z,14.61
2019-05-07T11:20:47.346Z,14.69
2019-05-07T11:21:38.712Z,14.83
2019-05-07T11:22:37.819Z,14.99
2019-05-07T11:23:37.702Z,15.19
2019-05-07T11:24:37.719Z,15.29
2019-05-07T11:25:37.684Z,15.35
2019-05-07T11:26:37.769Z,15.27
2019-05-07T11:27:37.677Z,15.36
2019-05-07T11:28:37.675Z,15.48
2019-05-07T11:29:37.688Z,15.48
2019-05-07T11:30:37.625Z,15.73
2019-05-07T11:31:37.597Z,15.98
2019-05-07T11:32:37.595Z,16.13
2019-05-07T11:33:37.894Z,16.39
2019-05-07T11:34:37.625Z,16.59
2019-05-07T11:35:37.598Z,16.65
2019-05-07T11:36:38.316Z,16.80
2019-05-07T11:37:37.548Z,16.67
2019-05-07T11:38:37.515Z,16.57
2019-05-07T11:39:37.515Z,16.51
2019-05-07T11:40:37.535Z,16.42
2019-05-07T11:41:37.535Z,16.22
2019-05-07T11:42:37.467Z,16.29
2019-05-07T11:43:37.461Z,16.39
2019-05-07T11:44:37.454Z,16.49
2019-05-07T11:45:37.466Z,16.55
2019-05-07T11:46:37.469Z,16.32
2019-05-07T11:47:37.457Z,16.05
2019-05-07T11:48:37.471Z,15.98
2019-05-07T11:49:37.393Z,16.25
2019-05-07T11:50:37.392Z,16.42
2019-05-07T11:51:37.405Z,16.33
2019-05-07T11:52:37.366Z,15.88
2019-05-07T11:53:37.406Z,15.56
2019-05-07T11:54:38.331Z,15.26
2019-05-07T11:55:37.342Z,15.30
2019-05-07T11:56:37.374Z,15.40
2019-05-07T11:57:37.315Z,15.69
2019-05-07T11:58:37.349Z,15.98
2019-05-07T11:59:37.283Z,16.18
2019-05-07T12:00:37.347Z,16.09
2019-05-07T12:01:46.707Z,16.25
2019-05-07T12:02:38.867Z,16.39
2019-05-07T12:03:37.247Z,16.34
2019-05-07T12:04:37.229Z,16.46
2019-05-07T12:05:37.230Z,16.33
2019-05-07T12:06:37.225Z,16.33
2019-05-07T12:07:37.215Z,16.16
2019-05-07T12:08:44.685Z,15.90
2019-05-07T12:09:38.181Z,15.76
2019-05-07T12:10:37.231Z,15.81
2019-05-07T12:11:37.186Z,15.77
2019-05-07T12:12:37.195Z,15.66
2019-05-07T12:13:37.127Z,15.63
2019-05-07T12:14:37.138Z,15.78
2019-05-07T12:15:37.152Z,15.59
2019-05-07T12:16:37.096Z,15.65
2019-05-07T12:17:37.089Z,15.84
2019-05-07T12:18:37.226Z,15.72
2019-05-07T12:19:37.069Z,15.60
2019-05-07T12:20:37.064Z,15.52
2019-05-07T12:21:37.083Z,15.48
2019-05-07T12:22:37.034Z,15.58
2019-05-07T12:23:37.047Z,15.78
2019-05-07T12:24:37.003Z,15.91
2019-05-07T12:25:37.040Z,16.13
2019-05-07T12:26:37.032Z,16.40
2019-05-07T12:27:37.013Z,16.62
2019-05-07T12:28:37.013Z,16.83
2019-05-07T12:29:36.991Z,17.12
2019-05-07T12:30:36.959Z,17.34
2019-05-07T12:31:36.936Z,17.35
2019-05-07T12:32:36.927Z,17.24
2019-05-07T12:33:36.916Z,17.38
2019-05-07T12:34:36.951Z,17.49
2019-05-07T12:35:36.882Z,17.69
2019-05-07T12:36:36.876Z,17.54
2019-05-07T12:37:36.871Z,17.27
2019-05-07T12:38:36.854Z,17.10
2019-05-07T12:39:36.886Z,16.87
2019-05-07T12:40:36.883Z,16.65
2019-05-07T12:41:36.820Z,16.74
2019-05-07T12:42:36.838Z,16.94
2019-05-07T12:43:36.835Z,16.94
2019-05-07T12:44:36.791Z,16.98
2019-05-07T12:45:36.785Z,17.10
2019-05-07T12:46:36.774Z,17.02
2019-05-07T12:47:36.749Z,16.92
2019-05-07T12:48:36.740Z,16.77
2019-05-07T12:49:36.767Z,16.73
2019-05-07T12:50:36.731Z,16.76
2019-05-07T12:51:37.910Z,16.77
2019-05-07T12:52:36.700Z,16.77
2019-05-07T12:53:36.689Z,16.67
2019-05-07T12:54:36.836Z,16.67
2019-05-07T12:55:36.713Z,16.58
2019-05-07T12:56:36.700Z,16.47
2019-05-07T12:57:36.646Z,16.47
2019-05-07T12:58:36.634Z,16.44
2019-05-07T12:59:36.652Z,16.42
2019-05-07T13:00:36.617Z,16.44
2019-05-07T13:01:36.644Z,16.46
2019-05-07T13:02:40.867Z,16.52
2019-05-07T13:03:37.570Z,16.70
2019-05-07T13:04:36.643Z,16.69
2019-05-07T13:05:36.576Z,16.91
2019-05-07T13:06:36.552Z,17.04